East Vestal, New York
Current Conditions -  °F | °C
As of 11:17 AM on Thursday 27 Nov 2014 (Local Time) from KBGM Reporting Station
Light Snow Light Snow  
Wind Chill: 19°   Ceiling: 800
Heat Index: 27°   Visibility: 2.5mi
Dew Point: 24°   Wind: 7mph
Humidity: 89%   Direction: 290°WNW
Pressure: 29.96"   Gusts: NA
Location:  42.0523°N, 75.9029°W
Report Text: KBGM 271617Z 29006KT 2 1/2SM -SN BR OVC008 M03/M04 A2996 RMK AO2 CIG 005V013 P0000 T10281044 $
Loading
Personal Weather Stations






























Interactive Weather Map New forecast layout! Learn more

10-Day Weather Forecast

Advertisements
Track Severe Weather on mobile